sensor_id;sensor_type;location;lat;lon;timestamp;pressure;altitude;pressure_sealevel;temperature
5571;BMP180;2808;51.240;6.794;2023-08-21T00:02:04;101768.00;;;21.40
5571;BMP180;2808;51.240;6.794;2023-08-21T00:04:32;101768.00;;;21.40
5571;BMP180;2808;51.240;6.794;2023-08-21T00:07:00;101770.00;;;21.40
5571;BMP180;2808;51.240;6.794;2023-08-21T00:09:35;101763.00;;;21.40
5571;BMP180;2808;51.240;6.794;2023-08-21T00:12:08;101767.00;;;21.40
5571;BMP180;2808;51.240;6.794;2023-08-21T00:14:37;101762.00;;;21.30
5571;BMP180;2808;51.240;6.794;2023-08-21T00:17:05;101756.00;;;21.20
5571;BMP180;2808;51.240;6.794;2023-08-21T00:19:33;101759.00;;;21.10
5571;BMP180;2808;51.240;6.794;2023-08-21T00:22:01;101756.00;;;21.00
5571;BMP180;2808;51.240;6.794;2023-08-21T00:24:32;101763.00;;;21.00
5571;BMP180;2808;51.240;6.794;2023-08-21T00:27:00;101757.00;;;20.90
5571;BMP180;2808;51.240;6.794;2023-08-21T00:29:30;101762.00;;;20.90
5571;BMP180;2808;51.240;6.794;2023-08-21T00:32:02;101750.00;;;20.90
5571;BMP180;2808;51.240;6.794;2023-08-21T00:34:29;101756.00;;;20.90
5571;BMP180;2808;51.240;6.794;2023-08-21T00:36:57;101755.00;;;20.90
5571;BMP180;2808;51.240;6.794;2023-08-21T00:39:24;101748.00;;;20.90
5571;BMP180;2808;51.240;6.794;2023-08-21T00:41:52;101743.00;;;20.90
5571;BMP180;2808;51.240;6.794;2023-08-21T00:44:25;101745.00;;;20.80
5571;BMP180;2808;51.240;6.794;2023-08-21T00:46:56;101746.00;;;20.80
5571;BMP180;2808;51.240;6.794;2023-08-21T00:49:27;101750.00;;;20.80
5571;BMP180;2808;51.240;6.794;2023-08-21T00:51:55;101750.00;;;20.80
5571;BMP180;2808;51.240;6.794;2023-08-21T00:54:23;101746.00;;;20.70
5571;BMP180;2808;51.240;6.794;2023-08-21T00:56:51;101744.00;;;20.70
5571;BMP180;2808;51.240;6.794;2023-08-21T00:59:20;101748.00;;;20.70
5571;BMP180;2808;51.240;6.794;2023-08-21T01:01:48;101750.00;;;20.70
5571;BMP180;2808;51.240;6.794;2023-08-21T01:04:17;101759.00;;;20.70
5571;BMP180;2808;51.240;6.794;2023-08-21T01:06:45;101749.00;;;20.60
5571;BMP180;2808;51.240;6.794;2023-08-21T01:09:17;101748.00;;;20.50
5571;BMP180;2808;51.240;6.794;2023-08-21T01:11:54;101753.00;;;20.50
5571;BMP180;2808;51.240;6.794;2023-08-21T01:14:27;101755.00;;;20.50
5571;BMP180;2808;51.240;6.794;2023-08-21T01:16:59;101756.00;;;20.50
5571;BMP180;2808;51.240;6.794;2023-08-21T01:19:35;101752.00;;;20.40
5571;BMP180;2808;51.240;6.794;2023-08-21T01:22:06;101755.00;;;20.40
5571;BMP180;2808;51.240;6.794;2023-08-21T01:24:36;101756.00;;;20.50
5571;BMP180;2808;51.240;6.794;2023-08-21T01:27:03;101752.00;;;20.50
5571;BMP180;2808;51.240;6.794;2023-08-21T01:29:31;101767.00;;;20.50
5571;BMP180;2808;51.240;6.794;2023-08-21T01:32:05;101765.00;;;20.40
5571;BMP180;2808;51.240;6.794;2023-08-21T01:34:41;101762.00;;;20.40
5571;BMP180;2808;51.240;6.794;2023-08-21T01:37:12;101765.00;;;20.40
5571;BMP180;2808;51.240;6.794;2023-08-21T01:39:42;101771.00;;;20.30
5571;BMP180;2808;51.240;6.794;2023-08-21T01:42:11;101777.00;;;20.30
5571;BMP180;2808;51.240;6.794;2023-08-21T01:44:39;101773.00;;;20.30
5571;BMP180;2808;51.240;6.794;2023-08-21T01:47:14;101770.00;;;20.30
5571;BMP180;2808;51.240;6.794;2023-08-21T01:49:43;101762.00;;;20.30
5571;BMP180;2808;51.240;6.794;2023-08-21T01:52:10;101766.00;;;20.30
5571;BMP180;2808;51.240;6.794;2023-08-21T01:54:38;101770.00;;;20.30
5571;BMP180;2808;51.240;6.794;2023-08-21T01:57:07;101764.00;;;20.30
5571;BMP180;2808;51.240;6.794;2023-08-21T01:59:37;101763.00;;;20.30
5571;BMP180;2808;51.240;6.794;2023-08-21T02:02:05;101752.00;;;20.20
5571;BMP180;2808;51.240;6.794;2023-08-21T02:04:44;101756.00;;;20.20
5571;BMP180;2808;51.240;6.794;2023-08-21T02:07:12;101753.00;;;20.30
5571;BMP180;2808;51.240;6.794;2023-08-21T02:09:39;101749.00;;;20.30
5571;BMP180;2808;51.240;6.794;2023-08-21T02:12:14;101746.00;;;20.20
5571;BMP180;2808;51.240;6.794;2023-08-21T02:14:47;101746.00;;;20.20
5571;BMP180;2808;51.240;6.794;2023-08-21T02:17:15;101745.00;;;20.20
5571;BMP180;2808;51.240;6.794;2023-08-21T02:19:43;101741.00;;;20.20
5571;BMP180;2808;51.240;6.794;2023-08-21T02:22:10;101738.00;;;20.20
5571;BMP180;2808;51.240;6.794;2023-08-21T02:24:39;101736.00;;;20.20
5571;BMP180;2808;51.240;6.794;2023-08-21T02:27:07;101750.00;;;20.20
5571;BMP180;2808;51.240;6.794;2023-08-21T02:29:36;101752.00;;;20.20
5571;BMP180;2808;51.240;6.794;2023-08-21T02:32:04;101747.00;;;20.30
5571;BMP180;2808;51.240;6.794;2023-08-21T02:34:40;101751.00;;;20.40
5571;BMP180;2808;51.240;6.794;2023-08-21T02:37:08;101754.00;;;20.30
5571;BMP180;2808;51.240;6.794;2023-08-21T02:39:40;101739.00;;;20.30
5571;BMP180;2808;51.240;6.794;2023-08-21T02:42:10;101742.00;;;20.30
5571;BMP180;2808;51.240;6.794;2023-08-21T02:44:41;101747.00;;;20.20
5571;BMP180;2808;51.240;6.794;2023-08-21T02:47:16;101741.00;;;20.20
5571;BMP180;2808;51.240;6.794;2023-08-21T02:49:44;101747.00;;;20.20
5571;BMP180;2808;51.240;6.794;2023-08-21T02:52:11;101745.00;;;20.20
5571;BMP180;2808;51.240;6.794;2023-08-21T02:54:39;101739.00;;;20.20
5571;BMP180;2808;51.240;6.794;2023-08-21T02:57:06;101747.00;;;20.20
5571;BMP180;2808;51.240;6.794;2023-08-21T02:59:34;101750.00;;;20.20
5571;BMP180;2808;51.240;6.794;2023-08-21T03:02:03;101752.00;;;20.20
5571;BMP180;2808;51.240;6.794;2023-08-21T03:04:32;101736.00;;;20.20
5571;BMP180;2808;51.240;6.794;2023-08-21T03:07:02;101749.00;;;20.20
5571;BMP180;2808;51.240;6.794;2023-08-21T03:09:29;101744.00;;;20.20
5571;BMP180;2808;51.240;6.794;2023-08-21T03:11:57;101738.00;;;20.20
5571;BMP180;2808;51.240;6.794;2023-08-21T03:14:26;101745.00;;;20.20
5571;BMP180;2808;51.240;6.794;2023-08-21T03:16:54;101738.00;;;20.20
5571;BMP180;2808;51.240;6.794;2023-08-21T03:19:24;101729.00;;;20.20
5571;BMP180;2808;51.240;6.794;2023-08-21T03:21:51;101732.00;;;20.10
5571;BMP180;2808;51.240;6.794;2023-08-21T03:24:22;101729.00;;;20.00
5571;BMP180;2808;51.240;6.794;2023-08-21T03:26:53;101727.00;;;20.00
5571;BMP180;2808;51.240;6.794;2023-08-21T03:29:20;101725.00;;;20.00
5571;BMP180;2808;51.240;6.794;2023-08-21T03:31:53;101727.00;;;19.90
5571;BMP180;2808;51.240;6.794;2023-08-21T03:34:22;101725.00;;;19.90
5571;BMP180;2808;51.240;6.794;2023-08-21T03:36:51;101731.00;;;19.90
5571;BMP180;2808;51.240;6.794;2023-08-21T03:39:19;101724.00;;;19.80
5571;BMP180;2808;51.240;6.794;2023-08-21T03:41:55;101728.00;;;19.80
5571;BMP180;2808;51.240;6.794;2023-08-21T03:44:24;101727.00;;;19.80
5571;BMP180;2808;51.240;6.794;2023-08-21T03:46:54;101727.00;;;19.80
5571;BMP180;2808;51.240;6.794;2023-08-21T03:49:24;101738.00;;;19.80
5571;BMP180;2808;51.240;6.794;2023-08-21T03:51:58;101735.00;;;19.80
5571;BMP180;2808;51.240;6.794;2023-08-21T03:55:06;101731.00;;;19.80
5571;BMP180;2808;51.240;6.794;2023-08-21T03:57:37;101732.00;;;19.80
5571;BMP180;2808;51.240;6.794;2023-08-21T04:00:11;101732.00;;;19.80
5571;BMP180;2808;51.240;6.794;2023-08-21T04:02:38;101735.00;;;19.80
5571;BMP180;2808;51.240;6.794;2023-08-21T04:05:09;101736.00;;;19.80
5571;BMP180;2808;51.240;6.794;2023-08-21T04:07:37;101736.00;;;19.80
5571;BMP180;2808;51.240;6.794;2023-08-21T04:10:08;101738.00;;;19.80
5571;BMP180;2808;51.240;6.794;2023-08-21T04:12:36;101732.00;;;19.70
5571;BMP180;2808;51.240;6.794;2023-08-21T04:15:10;101729.00;;;19.70
5571;BMP180;2808;51.240;6.794;2023-08-21T04:17:38;101723.00;;;19.80
5571;BMP180;2808;51.240;6.794;2023-08-21T04:20:09;101730.00;;;19.80
5571;BMP180;2808;51.240;6.794;2023-08-21T04:22:37;101734.00;;;19.80
5571;BMP180;2808;51.240;6.794;2023-08-21T04:25:06;101740.00;;;19.80
5571;BMP180;2808;51.240;6.794;2023-08-21T04:27:35;101738.00;;;19.80
5571;BMP180;2808;51.240;6.794;2023-08-21T04:30:04;101740.00;;;19.80
5571;BMP180;2808;51.240;6.794;2023-08-21T04:32:34;101739.00;;;19.80
5571;BMP180;2808;51.240;6.794;2023-08-21T04:35:03;101739.00;;;19.90
5571;BMP180;2808;51.240;6.794;2023-08-21T04:37:45;101737.00;;;19.90
5571;BMP180;2808;51.240;6.794;2023-08-21T04:40:23;101741.00;;;19.90
5571;BMP180;2808;51.240;6.794;2023-08-21T04:43:03;101741.00;;;19.90
5571;BMP180;2808;51.240;6.794;2023-08-21T04:45:30;101739.00;;;20.00
5571;BMP180;2808;51.240;6.794;2023-08-21T04:48:00;101741.00;;;20.00
5571;BMP180;2808;51.240;6.794;2023-08-21T04:50:31;101736.00;;;20.00
5571;BMP180;2808;51.240;6.794;2023-08-21T04:53:03;101736.00;;;20.00
5571;BMP180;2808;51.240;6.794;2023-08-21T04:55:31;101740.00;;;20.00
5571;BMP180;2808;51.240;6.794;2023-08-21T04:58:00;101740.00;;;20.10
5571;BMP180;2808;51.240;6.794;2023-08-21T05:00:52;101747.00;;;20.10
5571;BMP180;2808;51.240;6.794;2023-08-21T05:03:40;101746.00;;;20.20
5571;BMP180;2808;51.240;6.794;2023-08-21T05:06:15;101755.00;;;20.30
5571;BMP180;2808;51.240;6.794;2023-08-21T05:08:53;101753.00;;;20.30
5571;BMP180;2808;51.240;6.794;2023-08-21T05:11:21;101755.00;;;20.40
5571;BMP180;2808;51.240;6.794;2023-08-21T05:17:09;101746.00;;;20.40
5571;BMP180;2808;51.240;6.794;2023-08-21T05:19:37;101746.00;;;20.40
5571;BMP180;2808;51.240;6.794;2023-08-21T05:22:06;101742.00;;;20.50
5571;BMP180;2808;51.240;6.794;2023-08-21T05:24:36;101747.00;;;20.50
5571;BMP180;2808;51.240;6.794;2023-08-21T05:27:07;101747.00;;;20.60
5571;BMP180;2808;51.240;6.794;2023-08-21T05:29:37;101745.00;;;20.70
5571;BMP180;2808;51.240;6.794;2023-08-21T05:32:08;101743.00;;;20.80
5571;BMP180;2808;51.240;6.794;2023-08-21T05:34:35;101740.00;;;21.00
5571;BMP180;2808;51.240;6.794;2023-08-21T05:37:06;101747.00;;;21.20
5571;BMP180;2808;51.240;6.794;2023-08-21T05:39:41;101744.00;;;21.50
5571;BMP180;2808;51.240;6.794;2023-08-21T05:42:09;101746.00;;;21.80
5571;BMP180;2808;51.240;6.794;2023-08-21T05:44:40;101745.00;;;22.00
5571;BMP180;2808;51.240;6.794;2023-08-21T05:47:08;101743.00;;;22.10
5571;BMP180;2808;51.240;6.794;2023-08-21T05:49:38;101748.00;;;22.00
5571;BMP180;2808;51.240;6.794;2023-08-21T05:52:05;101749.00;;;22.00
5571;BMP180;2808;51.240;6.794;2023-08-21T05:54:34;101748.00;;;22.00
5571;BMP180;2808;51.240;6.794;2023-08-21T05:57:18;101755.00;;;22.30
5571;BMP180;2808;51.240;6.794;2023-08-21T05:59:49;101750.00;;;22.50
5571;BMP180;2808;51.240;6.794;2023-08-21T06:02:17;101757.00;;;22.60
5571;BMP180;2808;51.240;6.794;2023-08-21T06:04:45;101754.00;;;22.60
5571;BMP180;2808;51.240;6.794;2023-08-21T06:07:12;101757.00;;;22.50
5571;BMP180;2808;51.240;6.794;2023-08-21T06:09:41;101764.00;;;22.60
5571;BMP180;2808;51.240;6.794;2023-08-21T06:12:09;101769.00;;;22.80
5571;BMP180;2808;51.240;6.794;2023-08-21T06:14:37;101767.00;;;22.90
5571;BMP180;2808;51.240;6.794;2023-08-21T06:17:19;101763.00;;;23.10
5571;BMP180;2808;51.240;6.794;2023-08-21T06:20:04;101765.00;;;23.30
5571;BMP180;2808;51.240;6.794;2023-08-21T06:22:41;101766.00;;;23.50
5571;BMP180;2808;51.240;6.794;2023-08-21T06:25:10;101768.00;;;24.10
5571;BMP180;2808;51.240;6.794;2023-08-21T06:27:39;101767.00;;;24.50
5571;BMP180;2808;51.240;6.794;2023-08-21T06:30:07;101769.00;;;24.50
5571;BMP180;2808;51.240;6.794;2023-08-21T06:32:35;101762.00;;;24.60
5571;BMP180;2808;51.240;6.794;2023-08-21T06:35:03;101771.00;;;24.70
5571;BMP180;2808;51.240;6.794;2023-08-21T06:37:33;101771.00;;;24.90
5571;BMP180;2808;51.240;6.794;2023-08-21T06:40:07;101768.00;;;25.20
5571;BMP180;2808;51.240;6.794;2023-08-21T06:42:36;101765.00;;;25.40
5571;BMP180;2808;51.240;6.794;2023-08-21T06:45:12;101766.00;;;25.60
5571;BMP180;2808;51.240;6.794;2023-08-21T07:08:43;101782.00;;;27.80
5571;BMP180;2808;51.240;6.794;2023-08-21T07:11:10;101793.00;;;28.30
5571;BMP180;2808;51.240;6.794;2023-08-21T07:13:38;101792.00;;;28.80
5571;BMP180;2808;51.240;6.794;2023-08-21T07:16:06;101792.00;;;28.90
5571;BMP180;2808;51.240;6.794;2023-08-21T07:18:35;101796.00;;;29.00
5571;BMP180;2808;51.240;6.794;2023-08-21T07:21:03;101800.00;;;28.90
5571;BMP180;2808;51.240;6.794;2023-08-21T07:23:30;101801.00;;;28.60
5571;BMP180;2808;51.240;6.794;2023-08-21T07:26:00;101800.00;;;28.20
5571;BMP180;2808;51.240;6.794;2023-08-21T07:28:29;101800.00;;;27.80
5571;BMP180;2808;51.240;6.794;2023-08-21T08:12:18;101815.00;;;29.30
5571;BMP180;2808;51.240;6.794;2023-08-21T08:14:54;101813.00;;;29.40
5571;BMP180;2808;51.240;6.794;2023-08-21T08:24:53;101813.00;;;29.80
5571;BMP180;2808;51.240;6.794;2023-08-21T08:41:04;101813.00;;;29.80
5571;BMP180;2808;51.240;6.794;2023-08-21T08:47:27;101804.00;;;29.60
5571;BMP180;2808;51.240;6.794;2023-08-21T08:53:22;101816.00;;;29.50
5571;BMP180;2808;51.240;6.794;2023-08-21T08:55:50;101819.00;;;29.40
5571;BMP180;2808;51.240;6.794;2023-08-21T08:58:31;101810.00;;;29.40
5571;BMP180;2808;51.240;6.794;2023-08-21T09:01:09;101814.00;;;29.40
5571;BMP180;2808;51.240;6.794;2023-08-21T09:03:38;101820.00;;;29.50
5571;BMP180;2808;51.240;6.794;2023-08-21T09:06:05;101824.00;;;29.50
5571;BMP180;2808;51.240;6.794;2023-08-21T09:08:37;101817.00;;;29.50
5571;BMP180;2808;51.240;6.794;2023-08-21T09:11:10;101823.00;;;29.20
5571;BMP180;2808;51.240;6.794;2023-08-21T09:13:41;101826.00;;;29.10
5571;BMP180;2808;51.240;6.794;2023-08-21T09:16:09;101817.00;;;29.20
5571;BMP180;2808;51.240;6.794;2023-08-21T09:18:50;101823.00;;;29.20
5571;BMP180;2808;51.240;6.794;2023-08-21T09:21:21;101819.00;;;29.30
5571;BMP180;2808;51.240;6.794;2023-08-21T09:23:56;101819.00;;;29.30
5571;BMP180;2808;51.240;6.794;2023-08-21T09:26:40;101815.00;;;29.40
5571;BMP180;2808;51.240;6.794;2023-08-21T09:29:10;101821.00;;;29.40
5571;BMP180;2808;51.240;6.794;2023-08-21T09:31:40;101817.00;;;29.20
5571;BMP180;2808;51.240;6.794;2023-08-21T09:34:10;101812.00;;;28.60
5571;BMP180;2808;51.240;6.794;2023-08-21T09:40:02;101814.00;;;28.50
5571;BMP180;2808;51.240;6.794;2023-08-21T09:43:02;101817.00;;;28.60
5571;BMP180;2808;51.240;6.794;2023-08-21T09:48:55;101814.00;;;28.20
5571;BMP180;2808;51.240;6.794;2023-08-21T09:51:23;101818.00;;;28.50
5571;BMP180;2808;51.240;6.794;2023-08-21T09:53:51;101813.00;;;28.70
5571;BMP180;2808;51.240;6.794;2023-08-21T09:56:20;101813.00;;;28.70
5571;BMP180;2808;51.240;6.794;2023-08-21T09:58:48;101813.00;;;28.60
5571;BMP180;2808;51.240;6.794;2023-08-21T10:01:17;101813.00;;;28.50
5571;BMP180;2808;51.240;6.794;2023-08-21T10:03:47;101808.00;;;28.30
5571;BMP180;2808;51.240;6.794;2023-08-21T10:06:18;101812.00;;;28.30
5571;BMP180;2808;51.240;6.794;2023-08-21T10:08:49;101812.00;;;28.50
5571;BMP180;2808;51.240;6.794;2023-08-21T10:11:23;101810.00;;;28.50
5571;BMP180;2808;51.240;6.794;2023-08-21T10:14:12;101801.00;;;28.60
5571;BMP180;2808;51.240;6.794;2023-08-21T10:17:24;101800.00;;;28.70
5571;BMP180;2808;51.240;6.794;2023-08-21T10:20:07;101793.00;;;28.70
5571;BMP180;2808;51.240;6.794;2023-08-21T10:22:46;101805.00;;;28.60
5571;BMP180;2808;51.240;6.794;2023-08-21T10:25:24;101793.00;;;28.40
5571;BMP180;2808;51.240;6.794;2023-08-21T10:27:53;101793.00;;;28.30
5571;BMP180;2808;51.240;6.794;2023-08-21T10:30:27;101794.00;;;28.20
5571;BMP180;2808;51.240;6.794;2023-08-21T10:33:15;101804.00;;;28.30
5571;BMP180;2808;51.240;6.794;2023-08-21T10:36:14;101800.00;;;28.40
5571;BMP180;2808;51.240;6.794;2023-08-21T10:45:54;101789.00;;;28.30
5571;BMP180;2808;51.240;6.794;2023-08-21T10:51:19;101795.00;;;28.40
5571;BMP180;2808;51.240;6.794;2023-08-21T10:53:49;101798.00;;;28.40
5571;BMP180;2808;51.240;6.794;2023-08-21T11:15:58;101802.00;;;28.30
5571;BMP180;2808;51.240;6.794;2023-08-21T11:19:10;101800.00;;;28.30
5571;BMP180;2808;51.240;6.794;2023-08-21T11:35:52;101804.00;;;28.20
5571;BMP180;2808;51.240;6.794;2023-08-21T11:38:29;101814.00;;;28.30
5571;BMP180;2808;51.240;6.794;2023-08-21T11:44:20;101807.00;;;28.10
5571;BMP180;2808;51.240;6.794;2023-08-21T11:46:47;101806.00;;;28.10
5571;BMP180;2808;51.240;6.794;2023-08-21T11:49:18;101808.00;;;28.10
5571;BMP180;2808;51.240;6.794;2023-08-21T11:52:12;101810.00;;;28.10
5571;BMP180;2808;51.240;6.794;2023-08-21T11:54:43;101816.00;;;28.20
5571;BMP180;2808;51.240;6.794;2023-08-21T11:57:17;101811.00;;;28.20
5571;BMP180;2808;51.240;6.794;2023-08-21T11:59:50;101803.00;;;28.10
5571;BMP180;2808;51.240;6.794;2023-08-21T12:02:58;101808.00;;;28.20
5571;BMP180;2808;51.240;6.794;2023-08-21T12:05:27;101810.00;;;28.20
5571;BMP180;2808;51.240;6.794;2023-08-21T12:08:23;101795.00;;;28.10
5571;BMP180;2808;51.240;6.794;2023-08-21T12:11:36;101797.00;;;28.00
5571;BMP180;2808;51.240;6.794;2023-08-21T12:14:23;101805.00;;;28.00
5571;BMP180;2808;51.240;6.794;2023-08-21T12:16:52;101794.00;;;28.00
5571;BMP180;2808;51.240;6.794;2023-08-21T12:19:29;101792.00;;;28.00
5571;BMP180;2808;51.240;6.794;2023-08-21T12:22:01;101788.00;;;28.00
5571;BMP180;2808;51.240;6.794;2023-08-21T12:31:27;101790.00;;;27.50
5571;BMP180;2808;51.240;6.794;2023-08-21T12:33:59;101790.00;;;27.40
5571;BMP180;2808;51.240;6.794;2023-08-21T12:36:27;101787.00;;;27.30
5571;BMP180;2808;51.240;6.794;2023-08-21T12:38:56;101791.00;;;27.10
5571;BMP180;2808;51.240;6.794;2023-08-21T12:41:25;101784.00;;;27.00
5571;BMP180;2808;51.240;6.794;2023-08-21T12:43:53;101792.00;;;27.10
5571;BMP180;2808;51.240;6.794;2023-08-21T12:46:24;101786.00;;;27.20
5571;BMP180;2808;51.240;6.794;2023-08-21T12:48:54;101775.00;;;27.20
5571;BMP180;2808;51.240;6.794;2023-08-21T12:51:21;101783.00;;;27.10
5571;BMP180;2808;51.240;6.794;2023-08-21T12:53:49;101783.00;;;27.10
5571;BMP180;2808;51.240;6.794;2023-08-21T12:56:22;101783.00;;;27.10
5571;BMP180;2808;51.240;6.794;2023-08-21T12:58:52;101774.00;;;27.30
5571;BMP180;2808;51.240;6.794;2023-08-21T13:01:22;101784.00;;;27.30
5571;BMP180;2808;51.240;6.794;2023-08-21T13:03:57;101777.00;;;27.30
5571;BMP180;2808;51.240;6.794;2023-08-21T13:06:54;101772.00;;;27.30
5571;BMP180;2808;51.240;6.794;2023-08-21T13:09:43;101774.00;;;27.30
5571;BMP180;2808;51.240;6.794;2023-08-21T13:16:59;101776.00;;;27.40
5571;BMP180;2808;51.240;6.794;2023-08-21T13:19:22;101780.00;;;27.50
5571;BMP180;2808;51.240;6.794;2023-08-21T13:21:49;101775.00;;;27.60
5571;BMP180;2808;51.240;6.794;2023-08-21T13:24:17;101777.00;;;27.70
5571;BMP180;2808;51.240;6.794;2023-08-21T13:26:45;101769.00;;;27.70
5571;BMP180;2808;51.240;6.794;2023-08-21T13:29:12;101775.00;;;27.70
5571;BMP180;2808;51.240;6.794;2023-08-21T13:31:41;101779.00;;;27.70
5571;BMP180;2808;51.240;6.794;2023-08-21T13:34:08;101782.00;;;27.60
5571;BMP180;2808;51.240;6.794;2023-08-21T13:36:39;101781.00;;;27.50
5571;BMP180;2808;51.240;6.794;2023-08-21T13:39:07;101780.00;;;27.50
5571;BMP180;2808;51.240;6.794;2023-08-21T13:41:37;101787.00;;;27.50
5571;BMP180;2808;51.240;6.794;2023-08-21T13:44:05;101772.00;;;27.50
5571;BMP180;2808;51.240;6.794;2023-08-21T13:46:33;101763.00;;;27.50
5571;BMP180;2808;51.240;6.794;2023-08-21T13:49:01;101758.00;;;27.60
5571;BMP180;2808;51.240;6.794;2023-08-21T13:51:29;101760.00;;;27.50
5571;BMP180;2808;51.240;6.794;2023-08-21T13:54:00;101751.00;;;27.40
5571;BMP180;2808;51.240;6.794;2023-08-21T13:56:27;101741.00;;;27.60
5571;BMP180;2808;51.240;6.794;2023-08-21T13:59:04;101747.00;;;27.60
5571;BMP180;2808;51.240;6.794;2023-08-21T14:03:08;101754.00;;;27.60
5571;BMP180;2808;51.240;6.794;2023-08-21T14:05:25;101757.00;;;27.60
5571;BMP180;2808;51.240;6.794;2023-08-21T14:08:00;101747.00;;;27.70
5571;BMP180;2808;51.240;6.794;2023-08-21T14:10:29;101745.00;;;27.70
5571;BMP180;2808;51.240;6.794;2023-08-21T14:12:57;101742.00;;;27.70
5571;BMP180;2808;51.240;6.794;2023-08-21T14:15:25;101738.00;;;27.80
5571;BMP180;2808;51.240;6.794;2023-08-21T14:17:59;101740.00;;;28.00
5571;BMP180;2808;51.240;6.794;2023-08-21T14:20:26;101738.00;;;28.00
5571;BMP180;2808;51.240;6.794;2023-08-21T14:22:55;101740.00;;;28.10
5571;BMP180;2808;51.240;6.794;2023-08-21T14:25:25;101731.00;;;28.10
5571;BMP180;2808;51.240;6.794;2023-08-21T14:27:55;101731.00;;;28.00
5571;BMP180;2808;51.240;6.794;2023-08-21T14:30:23;101739.00;;;27.90
5571;BMP180;2808;51.240;6.794;2023-08-21T14:32:51;101728.00;;;28.00
5571;BMP180;2808;51.240;6.794;2023-08-21T14:35:22;101738.00;;;28.00
5571;BMP180;2808;51.240;6.794;2023-08-21T14:37:50;101731.00;;;28.00
5571;BMP180;2808;51.240;6.794;2023-08-21T14:40:23;101728.00;;;28.00
5571;BMP180;2808;51.240;6.794;2023-08-21T14:43:09;101734.00;;;28.00
5571;BMP180;2808;51.240;6.794;2023-08-21T14:45:36;101729.00;;;27.90
5571;BMP180;2808;51.240;6.794;2023-08-21T14:49:10;101720.00;;;27.90
5571;BMP180;2808;51.240;6.794;2023-08-21T14:52:11;101731.00;;;27.90
5571;BMP180;2808;51.240;6.794;2023-08-21T14:54:50;101729.00;;;27.80
5571;BMP180;2808;51.240;6.794;2023-08-21T14:58:00;101723.00;;;27.70
5571;BMP180;2808;51.240;6.794;2023-08-21T15:03:42;101718.00;;;27.60
5571;BMP180;2808;51.240;6.794;2023-08-21T15:06:37;101721.00;;;27.70
5571;BMP180;2808;51.240;6.794;2023-08-21T15:09:17;101711.00;;;27.70
5571;BMP180;2808;51.240;6.794;2023-08-21T15:11:45;101714.00;;;27.70
5571;BMP180;2808;51.240;6.794;2023-08-21T15:14:25;101712.00;;;27.80
5571;BMP180;2808;51.240;6.794;2023-08-21T15:16:53;101701.00;;;27.70
5571;BMP180;2808;51.240;6.794;2023-08-21T15:19:24;101701.00;;;27.70
5571;BMP180;2808;51.240;6.794;2023-08-21T15:21:54;101705.00;;;27.60
5571;BMP180;2808;51.240;6.794;2023-08-21T15:24:24;101708.00;;;27.60
5571;BMP180;2808;51.240;6.794;2023-08-21T15:26:53;101692.00;;;27.60
5571;BMP180;2808;51.240;6.794;2023-08-21T15:29:25;101697.00;;;27.60
5571;BMP180;2808;51.240;6.794;2023-08-21T15:31:59;101706.00;;;27.60
5571;BMP180;2808;51.240;6.794;2023-08-21T15:34:32;101688.00;;;27.60
5571;BMP180;2808;51.240;6.794;2023-08-21T15:37:03;101696.00;;;27.50
5571;BMP180;2808;51.240;6.794;2023-08-21T15:39:31;101695.00;;;27.50
5571;BMP180;2808;51.240;6.794;2023-08-21T15:42:06;101692.00;;;27.50
5571;BMP180;2808;51.240;6.794;2023-08-21T15:44:40;101702.00;;;27.50
5571;BMP180;2808;51.240;6.794;2023-08-21T15:47:28;101702.00;;;27.40
5571;BMP180;2808;51.240;6.794;2023-08-21T15:49:57;101694.00;;;27.40
5571;BMP180;2808;51.240;6.794;2023-08-21T15:52:27;101697.00;;;27.40
5571;BMP180;2808;51.240;6.794;2023-08-21T15:54:57;101690.00;;;27.40
5571;BMP180;2808;51.240;6.794;2023-08-21T15:57:24;101683.00;;;27.40
5571;BMP180;2808;51.240;6.794;2023-08-21T16:00:09;101687.00;;;27.40
5571;BMP180;2808;51.240;6.794;2023-08-21T16:02:37;101685.00;;;27.40
5571;BMP180;2808;51.240;6.794;2023-08-21T16:07:52;101685.00;;;27.40
5571;BMP180;2808;51.240;6.794;2023-08-21T16:10:21;101693.00;;;27.40
5571;BMP180;2808;51.240;6.794;2023-08-21T16:12:51;101690.00;;;27.40
5571;BMP180;2808;51.240;6.794;2023-08-21T16:15:20;101680.00;;;27.40
5571;BMP180;2808;51.240;6.794;2023-08-21T16:17:48;101682.00;;;27.40
5571;BMP180;2808;51.240;6.794;2023-08-21T16:20:20;101679.00;;;27.30
5571;BMP180;2808;51.240;6.794;2023-08-21T16:22:52;101676.00;;;27.20
5571;BMP180;2808;51.240;6.794;2023-08-21T16:25:23;101669.00;;;27.20
5571;BMP180;2808;51.240;6.794;2023-08-21T16:27:53;101661.00;;;27.20
5571;BMP180;2808;51.240;6.794;2023-08-21T16:30:21;101666.00;;;27.20
5571;BMP180;2808;51.240;6.794;2023-08-21T16:32:50;101663.00;;;27.10
5571;BMP180;2808;51.240;6.794;2023-08-21T16:35:19;101665.00;;;27.10
5571;BMP180;2808;51.240;6.794;2023-08-21T16:37:49;101668.00;;;27.00
5571;BMP180;2808;51.240;6.794;2023-08-21T16:40:17;101650.00;;;26.90
5571;BMP180;2808;51.240;6.794;2023-08-21T16:42:48;101658.00;;;26.90
5571;BMP180;2808;51.240;6.794;2023-08-21T16:45:48;101659.00;;;26.80
5571;BMP180;2808;51.240;6.794;2023-08-21T16:48:21;101661.00;;;26.80
5571;BMP180;2808;51.240;6.794;2023-08-21T16:50:56;101653.00;;;26.80
5571;BMP180;2808;51.240;6.794;2023-08-21T16:53:30;101652.00;;;26.70
5571;BMP180;2808;51.240;6.794;2023-08-21T16:55:58;101649.00;;;26.70
5571;BMP180;2808;51.240;6.794;2023-08-21T16:58:26;101641.00;;;26.70
5571;BMP180;2808;51.240;6.794;2023-08-21T17:00:53;101651.00;;;26.60
5571;BMP180;2808;51.240;6.794;2023-08-21T17:03:21;101645.00;;;26.60
5571;BMP180;2808;51.240;6.794;2023-08-21T17:06:04;101647.00;;;26.60
5571;BMP180;2808;51.240;6.794;2023-08-21T17:08:45;101644.00;;;26.50
5571;BMP180;2808;51.240;6.794;2023-08-21T17:11:15;101637.00;;;26.50
5571;BMP180;2808;51.240;6.794;2023-08-21T17:13:44;101632.00;;;26.50
5571;BMP180;2808;51.240;6.794;2023-08-21T17:16:20;101638.00;;;26.40
5571;BMP180;2808;51.240;6.794;2023-08-21T17:18:59;101635.00;;;26.40
5571;BMP180;2808;51.240;6.794;2023-08-21T17:21:46;101640.00;;;26.40
5571;BMP180;2808;51.240;6.794;2023-08-21T17:24:26;101636.00;;;26.40
5571;BMP180;2808;51.240;6.794;2023-08-21T17:27:04;101642.00;;;26.30
5571;BMP180;2808;51.240;6.794;2023-08-21T17:30:08;101632.00;;;26.30
5571;BMP180;2808;51.240;6.794;2023-08-21T17:33:34;101635.00;;;26.20
5571;BMP180;2808;51.240;6.794;2023-08-21T17:36:58;101640.00;;;26.20
5571;BMP180;2808;51.240;6.794;2023-08-21T17:39:37;101647.00;;;26.20
5571;BMP180;2808;51.240;6.794;2023-08-21T17:42:06;101642.00;;;26.10